sensor_id;sensor_type;location;lat;lon;timestamp;pressure;altitude;pressure_sealevel;temperature;humidity
42847;BME280;28495;49.916;14.536;2022-12-18T00:04:22;98198.34;;;-5.30;64.42
42847;BME280;28495;49.916;14.536;2022-12-18T00:09:43;98201.69;;;-5.19;65.36
42847;BME280;28495;49.916;14.536;2022-12-18T00:15:04;98199.03;;;-5.00;65.46
42847;BME280;28495;49.916;14.536;2022-12-18T00:20:25;98196.38;;;-4.83;65.35
42847;BME280;28495;49.916;14.536;2022-12-18T00:25:46;98202.50;;;-5.15;64.12
42847;BME280;28495;49.916;14.536;2022-12-18T00:31:10;98217.06;;;-5.56;63.37
42847;BME280;28495;49.916;14.536;2022-12-18T00:36:34;98235.75;;;-5.63;64.00
42847;BME280;28495;49.916;14.536;2022-12-18T00:41:55;98241.66;;;-5.66;64.11
42847;BME280;28495;49.916;14.536;2022-12-18T00:47:34;98241.63;;;-5.47;64.59
42847;BME280;28495;49.916;14.536;2022-12-18T00:52:54;98241.50;;;-5.13;65.61
42847;BME280;28495;49.916;14.536;2022-12-18T00:58:16;98254.38;;;-5.60;63.83
42847;BME280;28495;49.916;14.536;2022-12-18T01:03:37;98252.75;;;-5.90;63.27
42847;BME280;28495;49.916;14.536;2022-12-18T01:09:00;98259.56;;;-6.22;63.36
42847;BME280;28495;49.916;14.536;2022-12-18T01:14:20;98262.06;;;-6.50;63.59
42847;BME280;28495;49.916;14.536;2022-12-18T01:19:41;98259.56;;;-6.36;63.51
42847;BME280;28495;49.916;14.536;2022-12-18T01:25:04;98265.50;;;-6.29;63.61
42847;BME280;28495;49.916;14.536;2022-12-18T01:30:25;98275.63;;;-6.37;63.72
42847;BME280;28495;49.916;14.536;2022-12-18T01:35:46;98280.66;;;-6.57;63.23
42847;BME280;28495;49.916;14.536;2022-12-18T01:41:08;98276.44;;;-6.66;63.76
42847;BME280;28495;49.916;14.536;2022-12-18T01:46:29;98285.66;;;-6.90;63.95
42847;BME280;28495;49.916;14.536;2022-12-18T01:51:51;98289.91;;;-6.89;64.70
42847;BME280;28495;49.916;14.536;2022-12-18T01:57:12;98286.59;;;-6.53;65.33
42847;BME280;28495;49.916;14.536;2022-12-18T02:02:33;98285.75;;;-6.51;65.01
42847;BME280;28495;49.916;14.536;2022-12-18T02:08:10;98282.38;;;-6.62;64.97
42847;BME280;28495;49.916;14.536;2022-12-18T02:25:28;98311.09;;;-6.74;65.73
42847;BME280;28495;49.916;14.536;2022-12-18T02:30:56;98312.78;;;-6.64;65.75
42847;BME280;28495;49.916;14.536;2022-12-18T02:36:21;98313.66;;;-6.68;65.94
42847;BME280;28495;49.916;14.536;2022-12-18T02:41:46;98319.59;;;-6.61;66.10
42847;BME280;28495;49.916;14.536;2022-12-18T02:47:10;98311.16;;;-6.52;66.24
42847;BME280;28495;49.916;14.536;2022-12-18T02:58:09;98308.56;;;-6.63;66.33
42847;BME280;28495;49.916;14.536;2022-12-18T03:03:54;98313.69;;;-6.43;67.11
42847;BME280;28495;49.916;14.536;2022-12-18T03:09:25;98314.56;;;-6.29;66.66
42847;BME280;28495;49.916;14.536;2022-12-18T03:20:18;98323.88;;;-6.20;67.49
42847;BME280;28495;49.916;14.536;2022-12-18T03:25:42;98328.97;;;-6.24;67.25
42847;BME280;28495;49.916;14.536;2022-12-18T03:31:09;98332.28;;;-6.43;66.71
42847;BME280;28495;49.916;14.536;2022-12-18T03:36:31;98327.22;;;-6.47;67.27
42847;BME280;28495;49.916;14.536;2022-12-18T03:42:55;98334.88;;;-6.29;67.64
42847;BME280;28495;49.916;14.536;2022-12-18T03:48:00;98337.41;;;-6.12;67.63
42847;BME280;28495;49.916;14.536;2022-12-18T03:59:26;98334.88;;;-5.93;68.13
42847;BME280;28495;49.916;14.536;2022-12-18T04:04:52;98345.03;;;-5.81;68.30
42847;BME280;28495;49.916;14.536;2022-12-18T04:10:18;98345.03;;;-5.62;68.28
42847;BME280;28495;49.916;14.536;2022-12-18T04:15:40;98344.16;;;-5.50;68.35
42847;BME280;28495;49.916;14.536;2022-12-18T04:21:06;98351.81;;;-5.55;68.26
42847;BME280;28495;49.916;14.536;2022-12-18T04:26:26;98363.66;;;-5.63;67.93
42847;BME280;28495;49.916;14.536;2022-12-18T04:32:00;98369.59;;;-5.59;68.45
42847;BME280;28495;49.916;14.536;2022-12-18T04:37:23;98376.38;;;-5.44;68.75
42847;BME280;28495;49.916;14.536;2022-12-18T04:42:44;98367.88;;;-5.32;68.83
42847;BME280;28495;49.916;14.536;2022-12-18T04:48:05;98368.63;;;-4.92;69.49
42847;BME280;28495;49.916;14.536;2022-12-18T04:53:26;98364.47;;;-5.24;68.01
42847;BME280;28495;49.916;14.536;2022-12-18T04:58:47;98360.25;;;-5.42;68.39
42847;BME280;28495;49.916;14.536;2022-12-18T05:04:08;98373.00;;;-5.68;68.29
42847;BME280;28495;49.916;14.536;2022-12-18T05:09:30;98377.22;;;-5.81;68.78
42847;BME280;28495;49.916;14.536;2022-12-18T05:14:51;98393.31;;;-5.46;69.83
42847;BME280;28495;49.916;14.536;2022-12-18T05:20:11;98405.19;;;-5.45;68.87
42847;BME280;28495;49.916;14.536;2022-12-18T05:25:32;98405.16;;;-5.44;69.28
42847;BME280;28495;49.916;14.536;2022-12-18T05:30:56;98410.25;;;-5.61;68.54
42847;BME280;28495;49.916;14.536;2022-12-18T05:36:17;98411.09;;;-5.82;68.53
42847;BME280;28495;49.916;14.536;2022-12-18T05:41:38;98411.94;;;-5.58;69.50
42847;BME280;28495;49.916;14.536;2022-12-18T05:46:58;98411.94;;;-5.43;68.98
42847;BME280;28495;49.916;14.536;2022-12-18T05:52:19;98426.38;;;-5.45;68.63
42847;BME280;28495;49.916;14.536;2022-12-18T05:57:40;98423.81;;;-5.51;68.57
42847;BME280;28495;49.916;14.536;2022-12-18T06:03:01;98422.97;;;-5.56;68.60
42847;BME280;28495;49.916;14.536;2022-12-18T06:08:22;98417.06;;;-5.54;68.43
42847;BME280;28495;49.916;14.536;2022-12-18T06:13:43;98429.75;;;-5.77;68.72
42847;BME280;28495;49.916;14.536;2022-12-18T06:19:05;98441.63;;;-5.76;68.85
42847;BME280;28495;49.916;14.536;2022-12-18T06:24:26;98452.63;;;-5.68;69.11
42847;BME280;28495;49.916;14.536;2022-12-18T06:29:47;98455.13;;;-5.82;68.86
42847;BME280;28495;49.916;14.536;2022-12-18T06:35:08;98452.63;;;-5.80;69.42
42847;BME280;28495;49.916;14.536;2022-12-18T06:40:29;98456.84;;;-6.02;69.02
42847;BME280;28495;49.916;14.536;2022-12-18T06:45:50;98455.97;;;-6.12;69.29
42847;BME280;28495;49.916;14.536;2022-12-18T06:51:19;98480.53;;;-6.06;69.28
42847;BME280;28495;49.916;14.536;2022-12-18T06:56:40;98494.06;;;-6.07;69.43
42847;BME280;28495;49.916;14.536;2022-12-18T07:02:00;98494.94;;;-6.07;69.20
42847;BME280;28495;49.916;14.536;2022-12-18T07:07:22;98508.44;;;-6.20;69.51
42847;BME280;28495;49.916;14.536;2022-12-18T07:12:43;98521.09;;;-6.23;69.40
42847;BME280;28495;49.916;14.536;2022-12-18T07:18:03;98515.19;;;-6.18;69.47
42847;BME280;28495;49.916;14.536;2022-12-18T07:23:24;98530.41;;;-6.24;69.12
42847;BME280;28495;49.916;14.536;2022-12-18T07:28:45;98527.03;;;-6.20;69.83
42847;BME280;28495;49.916;14.536;2022-12-18T07:34:10;98527.00;;;-6.26;68.69
42847;BME280;28495;49.916;14.536;2022-12-18T07:39:31;98534.53;;;-6.43;68.98
42847;BME280;28495;49.916;14.536;2022-12-18T07:44:52;98543.72;;;-6.67;68.46
42847;BME280;28495;49.916;14.536;2022-12-18T07:50:13;98553.03;;;-6.63;69.26
42847;BME280;28495;49.916;14.536;2022-12-18T07:55:34;98558.16;;;-6.55;68.97
42847;BME280;28495;49.916;14.536;2022-12-18T08:01:15;98567.56;;;-6.40;69.33
42847;BME280;28495;49.916;14.536;2022-12-18T08:06:36;98566.69;;;-6.47;68.97
42847;BME280;28495;49.916;14.536;2022-12-18T08:11:58;98565.75;;;-6.60;68.77
42847;BME280;28495;49.916;14.536;2022-12-18T08:17:19;98568.25;;;-6.66;68.93
42847;BME280;28495;49.916;14.536;2022-12-18T08:22:41;98570.84;;;-6.56;69.20
42847;BME280;28495;49.916;14.536;2022-12-18T08:28:03;98570.84;;;-6.55;69.14
42847;BME280;28495;49.916;14.536;2022-12-18T08:33:24;98569.19;;;-6.51;68.88
42847;BME280;28495;49.916;14.536;2022-12-18T08:38:45;98565.78;;;-6.58;68.65
42847;BME280;28495;49.916;14.536;2022-12-18T08:44:07;98574.91;;;-6.77;68.54
42847;BME280;28495;49.916;14.536;2022-12-18T08:49:47;98575.75;;;-6.81;69.19
42847;BME280;28495;49.916;14.536;2022-12-18T08:55:08;98585.81;;;-6.91;69.06
42847;BME280;28495;49.916;14.536;2022-12-18T09:00:33;98568.97;;;-6.82;68.62
42847;BME280;28495;49.916;14.536;2022-12-18T09:05:53;98574.00;;;-6.89;68.61
42847;BME280;28495;49.916;14.536;2022-12-18T09:11:20;98581.66;;;-6.82;68.83
42847;BME280;28495;49.916;14.536;2022-12-18T09:16:41;98577.50;;;-6.74;68.66
42847;BME280;28495;49.916;14.536;2022-12-18T09:22:02;98570.84;;;-6.55;68.98
42847;BME280;28495;49.916;14.536;2022-12-18T09:27:23;98567.66;;;-6.18;70.74
42847;BME280;28495;49.916;14.536;2022-12-18T09:32:44;98569.38;;;-6.14;68.80
42847;BME280;28495;49.916;14.536;2022-12-18T09:38:05;98559.22;;;-6.20;68.63
42847;BME280;28495;49.916;14.536;2022-12-18T09:43:43;98575.28;;;-6.21;68.81
42847;BME280;28495;49.916;14.536;2022-12-18T09:49:12;98581.19;;;-6.24;68.60
42847;BME280;28495;49.916;14.536;2022-12-18T09:54:41;98592.19;;;-6.25;68.67
42847;BME280;28495;49.916;14.536;2022-12-18T10:00:09;98608.31;;;-6.21;68.84
42847;BME280;28495;49.916;14.536;2022-12-18T10:11:25;98619.44;;;-5.85;68.78
42847;BME280;28495;49.916;14.536;2022-12-18T10:17:03;98607.69;;;-5.64;68.87
42847;BME280;28495;49.916;14.536;2022-12-18T10:22:39;98605.13;;;-5.66;68.60
42847;BME280;28495;49.916;14.536;2022-12-18T10:28:23;98582.28;;;-5.55;69.07
42847;BME280;28495;49.916;14.536;2022-12-18T10:33:44;98565.34;;;-5.53;68.37
42847;BME280;28495;49.916;14.536;2022-12-18T10:39:20;98560.28;;;-5.50;68.55
42847;BME280;28495;49.916;14.536;2022-12-18T10:44:42;98546.72;;;-5.37;68.49
42847;BME280;28495;49.916;14.536;2022-12-18T10:50:03;98553.50;;;-5.40;67.67
42847;BME280;28495;49.916;14.536;2022-12-18T10:55:31;98535.69;;;-5.51;68.29
42847;BME280;28495;49.916;14.536;2022-12-18T11:06:29;98517.06;;;-5.10;67.95
42847;BME280;28495;49.916;14.536;2022-12-18T11:11:56;98511.97;;;-4.77;68.93
42847;BME280;28495;49.916;14.536;2022-12-18T11:17:25;98510.22;;;-4.61;68.38
42847;BME280;28495;49.916;14.536;2022-12-18T11:22:57;98502.63;;;-4.75;67.99
42847;BME280;28495;49.916;14.536;2022-12-18T11:28:51;98506.91;;;-4.85;67.89
42847;BME280;28495;49.916;14.536;2022-12-18T11:34:19;98507.72;;;-4.95;68.32
42847;BME280;28495;49.916;14.536;2022-12-18T11:39:57;98503.47;;;-4.70;68.18
42847;BME280;28495;49.916;14.536;2022-12-18T11:45:26;98502.63;;;-4.77;68.04
42847;BME280;28495;49.916;14.536;2022-12-18T11:50:54;98515.75;;;-3.54;70.04
42847;BME280;28495;49.916;14.536;2022-12-18T12:02:13;98515.25;;;-4.32;68.01
42847;BME280;28495;49.916;14.536;2022-12-18T12:13:29;98523.75;;;-4.31;68.27
42847;BME280;28495;49.916;14.536;2022-12-18T12:19:15;98522.81;;;-4.10;68.78
42847;BME280;28495;49.916;14.536;2022-12-18T12:30:47;98520.34;;;-4.36;68.43
42847;BME280;28495;49.916;14.536;2022-12-18T12:41:46;98526.31;;;-4.50;68.46
42847;BME280;28495;49.916;14.536;2022-12-18T12:47:52;98527.22;;;-4.57;68.06
42847;BME280;28495;49.916;14.536;2022-12-18T12:53:23;98537.41;;;-4.72;68.38
42847;BME280;28495;49.916;14.536;2022-12-18T13:04:57;98539.94;;;-4.65;67.74
42847;BME280;28495;49.916;14.536;2022-12-18T13:10:31;98534.88;;;-4.80;68.34
42847;BME280;28495;49.916;14.536;2022-12-18T13:16:07;98549.31;;;-4.99;67.83
42847;BME280;28495;49.916;14.536;2022-12-18T13:21:30;98555.25;;;-5.11;67.69
42847;BME280;28495;49.916;14.536;2022-12-18T13:26:54;98551.78;;;-4.47;72.35
42847;BME280;28495;49.916;14.536;2022-12-18T13:32:25;98540.44;;;-3.63;70.98
42847;BME280;28495;49.916;14.536;2022-12-18T13:37:54;98549.06;;;-3.86;69.78
42847;BME280;28495;49.916;14.536;2022-12-18T13:48:50;98534.88;;;-4.69;68.75
42847;BME280;28495;49.916;14.536;2022-12-18T13:54:30;98522.19;;;-5.00;68.95
42847;BME280;28495;49.916;14.536;2022-12-18T13:59:53;98522.16;;;-5.14;69.02
42847;BME280;28495;49.916;14.536;2022-12-18T14:05:43;98537.41;;;-5.33;68.81
42847;BME280;28495;49.916;14.536;2022-12-18T14:11:06;98540.78;;;-5.45;68.92
42847;BME280;28495;49.916;14.536;2022-12-18T14:16:31;98549.22;;;-5.69;68.35
42847;BME280;28495;49.916;14.536;2022-12-18T14:21:52;98555.13;;;-5.73;68.91
42847;BME280;28495;49.916;14.536;2022-12-18T14:27:22;98563.63;;;-5.62;69.19
42847;BME280;28495;49.916;14.536;2022-12-18T14:32:43;98553.50;;;-5.53;69.55
42847;BME280;28495;49.916;14.536;2022-12-18T14:43:40;98554.38;;;-5.24;69.41
42847;BME280;28495;49.916;14.536;2022-12-18T14:49:04;98553.53;;;-5.12;69.16
42847;BME280;28495;49.916;14.536;2022-12-18T14:54:27;98549.31;;;-4.99;69.19
42847;BME280;28495;49.916;14.536;2022-12-18T14:59:50;98545.06;;;-4.80;68.94
42847;BME280;28495;49.916;14.536;2022-12-18T15:05:29;98545.91;;;-5.00;68.84
42847;BME280;28495;49.916;14.536;2022-12-18T15:10:50;98551.00;;;-5.17;69.01
42847;BME280;28495;49.916;14.536;2022-12-18T15:16:12;98553.50;;;-5.22;69.23
42847;BME280;28495;49.916;14.536;2022-12-18T15:21:33;98545.91;;;-5.11;69.14
42847;BME280;28495;49.916;14.536;2022-12-18T15:26:54;98532.34;;;-5.11;69.03
42847;BME280;28495;49.916;14.536;2022-12-18T15:32:19;98543.34;;;-5.11;68.96
42847;BME280;28495;49.916;14.536;2022-12-18T15:37:40;98536.56;;;-4.96;69.58
42847;BME280;28495;49.916;14.536;2022-12-18T15:43:04;98533.19;;;-4.94;68.84
42847;BME280;28495;49.916;14.536;2022-12-18T15:48:45;98536.59;;;-5.23;67.61
42847;BME280;28495;49.916;14.536;2022-12-18T15:54:11;98528.94;;;-5.21;67.68
42847;BME280;28495;49.916;14.536;2022-12-18T15:59:34;98534.00;;;-5.52;67.59
42847;BME280;28495;49.916;14.536;2022-12-18T16:04:55;98534.75;;;-5.86;67.68
42847;BME280;28495;49.916;14.536;2022-12-18T16:10:16;98533.84;;;-5.97;68.14
42847;BME280;28495;49.916;14.536;2022-12-18T16:15:37;98526.22;;;-5.97;68.02
42847;BME280;28495;49.916;14.536;2022-12-18T16:20:58;98527.00;;;-6.28;67.52
42847;BME280;28495;49.916;14.536;2022-12-18T16:26:19;98516.75;;;-6.46;67.58
42847;BME280;28495;49.916;14.536;2022-12-18T16:31:41;98515.91;;;-6.45;67.74
42847;BME280;28495;49.916;14.536;2022-12-18T16:37:05;98513.44;;;-6.36;67.63
42847;BME280;28495;49.916;14.536;2022-12-18T16:42:26;98520.28;;;-6.15;67.76
42847;BME280;28495;49.916;14.536;2022-12-18T16:47:47;98512.72;;;-5.88;67.82
42847;BME280;28495;49.916;14.536;2022-12-18T16:53:07;98502.63;;;-5.63;68.02
42847;BME280;28495;49.916;14.536;2022-12-18T16:58:28;98513.69;;;-5.16;68.62
42847;BME280;28495;49.916;14.536;2022-12-18T17:03:53;98507.75;;;-4.89;67.91
42847;BME280;28495;49.916;14.536;2022-12-18T17:09:14;98518.75;;;-4.96;67.29
42847;BME280;28495;49.916;14.536;2022-12-18T17:14:36;98528.09;;;-5.32;66.13
42847;BME280;28495;49.916;14.536;2022-12-18T17:19:57;98535.66;;;-5.57;65.94
42847;BME280;28495;49.916;14.536;2022-12-18T17:25:18;98522.91;;;-5.82;65.84
42847;BME280;28495;49.916;14.536;2022-12-18T17:30:39;98517.03;;;-5.70;69.61
42847;BME280;28495;49.916;14.536;2022-12-18T17:35:59;98524.63;;;-5.72;65.82
42847;BME280;28495;49.916;14.536;2022-12-18T17:41:21;98535.63;;;-5.70;65.49
42847;BME280;28495;49.916;14.536;2022-12-18T17:46:43;98535.56;;;-5.98;65.15
42847;BME280;28495;49.916;14.536;2022-12-18T17:52:05;98528.03;;;-5.67;65.84
42847;BME280;28495;49.916;14.536;2022-12-18T17:57:26;98511.09;;;-5.57;65.32
42847;BME280;28495;49.916;14.536;2022-12-18T18:02:47;98513.66;;;-5.61;64.90
42847;BME280;28495;49.916;14.536;2022-12-18T18:08:08;98521.97;;;-6.20;63.86
42847;BME280;28495;49.916;14.536;2022-12-18T18:13:29;98538.00;;;-6.30;64.26
42847;BME280;28495;49.916;14.536;2022-12-18T18:19:15;98508.28;;;-6.50;64.39
42847;BME280;28495;49.916;14.536;2022-12-18T18:24:37;98504.69;;;-6.84;63.73
42847;BME280;28495;49.916;14.536;2022-12-18T18:29:58;98504.59;;;-7.00;63.72
42847;BME280;28495;49.916;14.536;2022-12-18T18:35:18;98502.06;;;-6.98;64.50
42847;BME280;28495;49.916;14.536;2022-12-18T18:41:01;98503.03;;;-6.82;64.64
42847;BME280;28495;49.916;14.536;2022-12-18T18:46:23;98510.66;;;-6.76;64.51
42847;BME280;28495;49.916;14.536;2022-12-18T18:51:44;98503.97;;;-6.62;65.20
42847;BME280;28495;49.916;14.536;2022-12-18T18:57:05;98516.66;;;-6.63;65.17
42847;BME280;28495;49.916;14.536;2022-12-18T19:02:45;98526.97;;;-6.37;65.34
42847;BME280;28495;49.916;14.536;2022-12-18T19:08:07;98531.16;;;-6.45;64.67
42847;BME280;28495;49.916;14.536;2022-12-18T19:13:32;98542.94;;;-6.55;64.88
42847;BME280;28495;49.916;14.536;2022-12-18T19:18:54;98524.28;;;-6.62;64.59
42847;BME280;28495;49.916;14.536;2022-12-18T19:24:21;98515.06;;;-6.49;64.71
42847;BME280;28495;49.916;14.536;2022-12-18T19:29:44;98512.63;;;-6.21;64.82
42847;BME280;28495;49.916;14.536;2022-12-18T19:35:05;98498.31;;;-6.02;64.87
42847;BME280;28495;49.916;14.536;2022-12-18T19:40:26;98501.53;;;-6.45;63.53
42847;BME280;28495;49.916;14.536;2022-12-18T19:45:53;98516.56;;;-6.79;63.21
42847;BME280;28495;49.916;14.536;2022-12-18T19:51:17;98498.78;;;-6.80;64.08
42847;BME280;28495;49.916;14.536;2022-12-18T19:56:38;98480.94;;;-6.93;63.95
42847;BME280;28495;49.916;14.536;2022-12-18T20:01:59;98466.50;;;-7.08;63.90
42847;BME280;28495;49.916;14.536;2022-12-18T20:07:20;98473.09;;;-7.30;64.04
42847;BME280;28495;49.916;14.536;2022-12-18T20:12:41;98462.81;;;-7.50;64.17
42847;BME280;28495;49.916;14.536;2022-12-18T20:18:02;98461.72;;;-7.75;64.13
42847;BME280;28495;49.916;14.536;2022-12-18T20:23:23;98467.44;;;-7.93;64.61
42847;BME280;28495;49.916;14.536;2022-12-18T20:28:44;98474.94;;;-8.04;64.42
42847;BME280;28495;49.916;14.536;2022-12-18T20:34:06;98482.34;;;-8.23;64.84
42847;BME280;28495;49.916;14.536;2022-12-18T20:39:27;98487.31;;;-8.32;64.99
42847;BME280;28495;49.916;14.536;2022-12-18T20:44:49;98494.75;;;-8.43;65.16
42847;BME280;28495;49.916;14.536;2022-12-18T20:50:11;98465.88;;;-8.61;65.18
42847;BME280;28495;49.916;14.536;2022-12-18T20:55:32;98475.91;;;-8.67;65.25
42847;BME280;28495;49.916;14.536;2022-12-18T21:01:08;98484.56;;;-8.51;65.27
42847;BME280;28495;49.916;14.536;2022-12-18T21:06:30;98482.31;;;-8.24;65.32
42847;BME280;28495;49.916;14.536;2022-12-18T21:11:51;98483.41;;;-8.02;65.46
42847;BME280;28495;49.916;14.536;2022-12-18T21:17:34;98459.13;;;-7.82;65.51
42847;BME280;28495;49.916;14.536;2022-12-18T21:23:04;98454.84;;;-7.86;65.22
42847;BME280;28495;49.916;14.536;2022-12-18T21:28:36;98437.06;;;-7.97;64.89
42847;BME280;28495;49.916;14.536;2022-12-18T21:33:57;98452.00;;;-8.20;65.35
42847;BME280;28495;49.916;14.536;2022-12-18T21:39:22;98451.78;;;-8.38;65.33
42847;BME280;28495;49.916;14.536;2022-12-18T21:44:43;98444.03;;;-8.54;65.86
42847;BME280;28495;49.916;14.536;2022-12-18T21:50:08;98433.03;;;-8.58;65.92
42847;BME280;28495;49.916;14.536;2022-12-18T21:55:29;98438.09;;;-8.56;66.41
42847;BME280;28495;49.916;14.536;2022-12-18T22:00:50;98449.94;;;-8.53;66.25
42847;BME280;28495;49.916;14.536;2022-12-18T22:06:11;98451.69;;;-8.45;66.48
42847;BME280;28495;49.916;14.536;2022-12-18T22:11:32;98459.50;;;-8.28;67.09
42847;BME280;28495;49.916;14.536;2022-12-18T22:16:53;98451.28;;;-8.06;67.31
42847;BME280;28495;49.916;14.536;2022-12-18T22:22:18;98438.81;;;-7.88;67.33
42847;BME280;28495;49.916;14.536;2022-12-18T22:27:41;98425.53;;;-7.60;67.38
42847;BME280;28495;49.916;14.536;2022-12-18T22:33:03;98409.56;;;-7.52;67.21
42847;BME280;28495;49.916;14.536;2022-12-18T22:38:24;98401.09;;;-7.57;67.31
42847;BME280;28495;49.916;14.536;2022-12-18T22:43:45;98402.66;;;-7.68;66.61
42847;BME280;28495;49.916;14.536;2022-12-18T22:49:05;98392.53;;;-7.68;67.07
42847;BME280;28495;49.916;14.536;2022-12-18T22:54:26;98395.09;;;-7.65;67.30
42847;BME280;28495;49.916;14.536;2022-12-18T22:59:47;98399.41;;;-7.53;67.52
42847;BME280;28495;49.916;14.536;2022-12-18T23:05:09;98392.00;;;-7.24;68.22
42847;BME280;28495;49.916;14.536;2022-12-18T23:10:29;98398.91;;;-7.01;67.98
42847;BME280;28495;49.916;14.536;2022-12-18T23:15:50;98388.81;;;-6.90;67.88
42847;BME280;28495;49.916;14.536;2022-12-18T23:21:16;98390.50;;;-6.92;68.07
42847;BME280;28495;49.916;14.536;2022-12-18T23:26:38;98388.06;;;-6.67;68.14
42847;BME280;28495;49.916;14.536;2022-12-18T23:31:58;98378.03;;;-6.29;68.57
42847;BME280;28495;49.916;14.536;2022-12-18T23:37:19;98368.78;;;-6.13;68.29
42847;BME280;28495;49.916;14.536;2022-12-18T23:43:00;98375.50;;;-6.21;67.89
42847;BME280;28495;49.916;14.536;2022-12-18T23:48:21;98345.91;;;-6.16;67.97
42847;BME280;28495;49.916;14.536;2022-12-18T23:53:42;98351.84;;;-6.04;68.04
42847;BME280;28495;49.916;14.536;2022-12-18T23:59:03;98349.28;;;-6.21;67.28
